createdAt,value
2023-02-15T00:00:11.858Z,3.17
2023-02-15T00:02:39.661Z,3.22
2023-02-15T00:05:07.692Z,3.21
2023-02-15T00:07:34.953Z,3.16
2023-02-15T00:10:02.364Z,3.23
2023-02-15T00:12:29.775Z,3.22
2023-02-15T00:14:57.225Z,3.19
2023-02-15T00:17:24.493Z,3.24
2023-02-15T00:19:51.717Z,3.19
2023-02-15T00:22:19.089Z,3.17
2023-02-15T00:24:46.321Z,3.10
2023-02-15T00:27:13.783Z,3.05
2023-02-15T00:29:41.904Z,3.04
2023-02-15T00:32:09.761Z,3.03
2023-02-15T00:34:36.941Z,3.02
2023-02-15T00:37:04.294Z,3.04
2023-02-15T00:39:31.586Z,3.05
2023-02-15T00:41:59.945Z,3.08
2023-02-15T00:44:27.510Z,3.12
2023-02-15T00:46:57.358Z,3.23
2023-02-15T00:49:25.210Z,3.19
2023-02-15T00:51:52.462Z,3.11
2023-02-15T00:54:19.923Z,3.08
2023-02-15T00:56:47.343Z,3.23
2023-02-15T00:59:14.746Z,3.23
2023-02-15T01:01:41.930Z,3.13
2023-02-15T01:04:09.502Z,3.05
2023-02-15T01:06:36.764Z,2.71
2023-02-15T01:09:04.138Z,2.98
2023-02-15T01:11:37.816Z,2.94
2023-02-15T01:14:06.607Z,2.98
2023-02-15T01:16:34.011Z,2.96
2023-02-15T01:19:01.542Z,2.92
2023-02-15T01:21:28.900Z,2.98
2023-02-15T01:23:56.329Z,2.87
2023-02-15T01:26:23.653Z,2.90
2023-02-15T01:28:50.989Z,2.89
2023-02-15T01:31:21.850Z,2.82
2023-02-15T01:33:50.217Z,2.91
2023-02-15T01:36:18.696Z,2.93
2023-02-15T01:38:46.421Z,2.93
2023-02-15T01:41:27.480Z,2.90
2023-02-15T01:44:03.341Z,2.90
2023-02-15T01:46:34.739Z,2.74
2023-02-15T01:49:11.416Z,2.83
2023-02-15T01:51:41.150Z,2.78
2023-02-15T01:54:20.467Z,2.72
2023-02-15T01:56:55.512Z,2.83
2023-02-15T01:59:25.156Z,2.85
2023-02-15T02:01:59.934Z,2.84
2023-02-15T02:04:35.331Z,2.85
2023-02-15T02:07:03.713Z,2.90
2023-02-15T02:09:33.552Z,2.90
2023-02-15T02:12:04.392Z,2.93
2023-02-15T02:14:33.574Z,3.01
2023-02-15T02:17:42.789Z,3.10
2023-02-15T02:20:21.923Z,3.12
2023-02-15T02:23:11.029Z,3.13
2023-02-15T02:26:09.254Z,3.09
2023-02-15T02:28:48.427Z,3.10
2023-02-15T02:32:00.994Z,3.06
2023-02-15T02:34:38.397Z,3.00
2023-02-15T02:37:30.583Z,3.00
2023-02-15T02:40:11.737Z,2.93
2023-02-15T02:42:57.593Z,2.90
2023-02-15T02:45:45.903Z,2.88
2023-02-15T02:48:29.787Z,2.79
2023-02-15T02:50:57.016Z,2.98
2023-02-15T02:53:24.631Z,2.92
2023-02-15T02:56:00.340Z,3.00
2023-02-15T02:58:31.233Z,3.00
2023-02-15T03:01:07.010Z,2.95
2023-02-15T03:03:41.129Z,3.00
2023-02-15T03:06:24.028Z,2.83
2023-02-15T03:09:15.657Z,3.03
2023-02-15T03:11:45.353Z,3.07
2023-02-15T03:14:15.631Z,3.07
2023-02-15T03:16:47.753Z,2.99
2023-02-15T03:19:19.109Z,2.99
2023-02-15T03:22:04.987Z,2.98
2023-02-15T03:24:55.017Z,3.03
2023-02-15T03:27:32.560Z,2.97
2023-02-15T03:30:03.628Z,3.02
2023-02-15T03:32:33.740Z,2.91
2023-02-15T03:35:01.400Z,2.99
2023-02-15T03:37:47.456Z,3.06
2023-02-15T03:40:46.032Z,2.99
2023-02-15T03:43:34.622Z,2.99
2023-02-15T03:46:34.145Z,2.90
2023-02-15T03:49:16.888Z,2.92
2023-02-15T03:51:47.531Z,2.84
2023-02-15T03:54:42.255Z,2.77
2023-02-15T03:57:32.230Z,2.75
2023-02-15T04:00:20.336Z,2.80
2023-02-15T04:03:06.759Z,2.87
2023-02-15T04:05:34.210Z,2.83
2023-02-15T04:08:01.649Z,2.69
2023-02-15T04:10:47.933Z,2.78
2023-02-15T04:13:15.532Z,2.72
2023-02-15T04:16:01.807Z,2.71
2023-02-15T04:18:47.853Z,2.71
2023-02-15T04:21:33.490Z,2.71
2023-02-15T04:24:19.026Z,2.64
2023-02-15T04:26:46.809Z,2.64
2023-02-15T04:29:14.130Z,2.61
2023-02-15T04:31:41.544Z,2.62
2023-02-15T04:34:09.002Z,2.61
2023-02-15T04:36:36.237Z,2.54
2023-02-15T04:39:03.492Z,2.52
2023-02-15T04:41:30.855Z,2.53
2023-02-15T04:44:01.910Z,2.53
2023-02-15T04:46:29.882Z,2.53
2023-02-15T04:48:57.666Z,2.55
2023-02-15T04:51:25.523Z,2.47
2023-02-15T04:53:54.070Z,2.55
2023-02-15T04:56:22.506Z,2.53
2023-02-15T04:58:49.873Z,2.56
2023-02-15T05:01:17.641Z,2.59
2023-02-15T05:03:44.981Z,2.56
2023-02-15T05:06:12.593Z,2.54
2023-02-15T05:08:39.976Z,2.60
2023-02-15T05:11:07.257Z,2.62
2023-02-15T05:13:34.617Z,2.65
2023-02-15T05:16:02.199Z,2.63
2023-02-15T05:18:29.701Z,2.72
2023-02-15T05:20:57.196Z,2.73
2023-02-15T05:23:24.562Z,2.75
2023-02-15T05:26:10.638Z,2.66
2023-02-15T05:28:39.428Z,2.74
2023-02-15T05:31:12.866Z,2.74
2023-02-15T05:33:40.350Z,2.70
2023-02-15T05:36:08.633Z,2.63
2023-02-15T05:38:38.269Z,2.68
2023-02-15T05:41:06.456Z,2.68
2023-02-15T05:43:34.410Z,2.74
2023-02-15T05:46:03.006Z,2.74
2023-02-15T05:48:31.011Z,2.78
2023-02-15T05:51:10.417Z,2.78
2023-02-15T05:53:39.584Z,2.75
2023-02-15T05:56:09.569Z,2.74
2023-02-15T05:58:39.713Z,2.80
2023-02-15T06:01:16.605Z,2.85
2023-02-15T06:03:44.098Z,2.85
2023-02-15T06:06:11.811Z,2.83
2023-02-15T06:08:39.357Z,2.79
2023-02-15T06:11:07.137Z,2.80
2023-02-15T06:13:38.233Z,2.53
2023-02-15T06:16:07.536Z,2.63
2023-02-15T06:18:35.700Z,2.82
2023-02-15T06:21:03.348Z,2.76
2023-02-15T06:23:31.112Z,2.74
2023-02-15T06:25:58.640Z,2.70
2023-02-15T06:28:26.878Z,2.73
2023-02-15T06:30:54.168Z,2.70
2023-02-15T06:33:24.779Z,2.72
2023-02-15T06:35:57.115Z,2.78
2023-02-15T06:38:24.272Z,2.79
2023-02-15T06:40:51.506Z,2.78
2023-02-15T06:43:18.923Z,2.78
2023-02-15T06:45:46.403Z,2.60
2023-02-15T06:48:13.580Z,2.76
2023-02-15T06:50:42.339Z,2.73
2023-02-15T06:53:11.134Z,2.78
2023-02-15T06:55:38.476Z,2.81
2023-02-15T06:58:05.764Z,2.84
2023-02-15T07:00:33.077Z,2.81
2023-02-15T07:03:00.614Z,2.75
2023-02-15T07:05:32.749Z,2.67
2023-02-15T07:08:01.533Z,2.78
2023-02-15T07:10:29.689Z,2.64
2023-02-15T07:12:57.626Z,2.75
2023-02-15T07:15:25.637Z,2.54
2023-02-15T07:17:53.361Z,2.94
2023-02-15T07:20:23.065Z,2.83
2023-02-15T07:22:51.521Z,2.89
2023-02-15T07:25:19.639Z,2.86
2023-02-15T07:27:47.167Z,2.85
2023-02-15T07:30:17.341Z,2.83
2023-02-15T07:33:05.468Z,2.81
2023-02-15T07:35:33.852Z,2.84
2023-02-15T07:38:02.404Z,2.82
2023-02-15T07:40:29.827Z,2.90
2023-02-15T07:43:00.498Z,2.92
2023-02-15T07:45:28.297Z,2.88
2023-02-15T07:47:55.606Z,2.81
2023-02-15T07:50:23.223Z,2.88
2023-02-15T07:52:50.390Z,2.92
2023-02-15T07:55:17.741Z,2.93
2023-02-15T07:57:46.512Z,2.97
2023-02-15T08:00:15.647Z,2.64
2023-02-15T08:02:43.497Z,3.04
2023-02-15T08:05:10.874Z,3.00
2023-02-15T08:07:38.217Z,3.05
2023-02-15T08:10:07.080Z,3.02
2023-02-15T08:12:34.470Z,3.08
2023-02-15T08:17:57.384Z,3.17
2023-02-15T08:20:25.190Z,3.19
2023-02-15T08:22:52.498Z,3.23
2023-02-15T08:25:19.892Z,3.28
2023-02-15T08:27:47.159Z,3.33
2023-02-15T08:30:15.419Z,3.33
2023-02-15T08:32:43.039Z,3.33
2023-02-15T08:35:11.085Z,3.33
2023-02-15T08:37:38.331Z,3.41
2023-02-15T08:40:06.611Z,3.46
2023-02-15T08:42:35.250Z,3.58
2023-02-15T08:45:02.571Z,3.66
2023-02-15T08:47:35.054Z,3.74
2023-02-15T08:50:03.761Z,3.90
2023-02-15T08:52:31.390Z,3.96
2023-02-15T08:54:58.545Z,4.09
2023-02-15T08:57:25.887Z,4.19
2023-02-15T08:59:56.604Z,4.34
2023-02-15T09:02:24.346Z,4.41
2023-02-15T09:04:56.817Z,4.20
2023-02-15T09:07:26.427Z,4.59
2023-02-15T09:09:54.630Z,4.85
2023-02-15T09:12:22.568Z,4.91
2023-02-15T09:14:49.848Z,4.87
2023-02-15T09:17:17.120Z,5.10
2023-02-15T09:19:48.595Z,5.23
2023-02-15T09:22:17.801Z,5.39
2023-02-15T09:24:45.372Z,5.46
2023-02-15T09:27:12.745Z,5.63
2023-02-15T09:29:40.925Z,5.82
2023-02-15T09:32:09.999Z,6.05
2023-02-15T09:34:41.367Z,6.29
2023-02-15T09:37:08.898Z,6.34
2023-02-15T09:39:44.969Z,6.49
2023-02-15T09:42:44.674Z,6.52
2023-02-15T09:46:16.924Z,6.73
2023-02-15T09:48:53.741Z,6.98
2023-02-15T09:51:29.061Z,7.13
2023-02-15T09:54:17.752Z,7.09
2023-02-15T09:57:35.600Z,7.27
2023-02-15T10:00:26.193Z,7.46
2023-02-15T10:03:22.885Z,7.70
2023-02-15T10:06:09.025Z,7.84
2023-02-15T10:08:43.360Z,7.98
2023-02-15T10:11:37.046Z,8.02
2023-02-15T10:14:17.230Z,8.19
2023-02-15T10:16:53.104Z,8.32
2023-02-15T10:19:32.482Z,8.48
2023-02-15T10:22:15.037Z,8.60
2023-02-15T10:24:47.786Z,8.66
2023-02-15T10:27:24.639Z,8.81
2023-02-15T10:30:11.092Z,8.88
2023-02-15T10:32:55.487Z,9.09
2023-02-15T10:35:55.405Z,9.18
2023-02-15T10:38:50.015Z,9.45
2023-02-15T10:41:38.424Z,9.43
2023-02-15T10:44:28.869Z,9.53
2023-02-15T10:47:31.068Z,9.63
2023-02-15T10:50:28.856Z,9.76
2023-02-15T10:53:15.398Z,9.74
2023-02-15T10:55:53.667Z,9.70
2023-02-15T10:58:47.289Z,10.06
2023-02-15T11:01:47.026Z,10.20
2023-02-15T11:04:17.557Z,10.31
2023-02-15T11:06:53.470Z,10.42
2023-02-15T11:09:24.335Z,10.50
2023-02-15T11:11:55.254Z,10.55
2023-02-15T11:14:39.309Z,10.66
2023-02-15T11:17:17.825Z,10.73
2023-02-15T11:20:02.048Z,10.92
2023-02-15T11:22:31.955Z,11.15
2023-02-15T11:25:01.331Z,11.13
2023-02-15T11:27:36.232Z,11.21
2023-02-15T11:30:14.201Z,11.25
2023-02-15T11:32:46.179Z,11.33
2023-02-15T11:35:13.522Z,11.55
2023-02-15T11:37:47.636Z,11.53
2023-02-15T11:40:20.984Z,11.67
2023-02-15T11:42:51.119Z,11.65
2023-02-15T11:45:26.130Z,11.75
2023-02-15T11:47:53.962Z,11.84
2023-02-15T11:50:26.885Z,11.97
2023-02-15T11:52:59.534Z,12.06
2023-02-15T11:55:32.227Z,12.06
2023-02-15T11:58:12.560Z,12.32
2023-02-15T12:00:49.660Z,12.46
2023-02-15T12:03:46.082Z,12.34
2023-02-15T12:06:20.735Z,12.57
2023-02-15T12:08:55.759Z,12.77
2023-02-15T12:11:30.830Z,12.87
2023-02-15T12:14:06.572Z,12.84
2023-02-15T12:16:57.006Z,12.79
2023-02-15T12:19:41.413Z,13.10
2023-02-15T12:22:33.404Z,13.24
2023-02-15T12:25:03.435Z,13.43
2023-02-15T12:27:33.535Z,13.38
2023-02-15T12:30:08.516Z,13.54
2023-02-15T12:32:48.639Z,13.28
2023-02-15T12:35:23.271Z,13.49
2023-02-15T12:38:01.961Z,13.49
2023-02-15T12:40:34.480Z,13.60
2023-02-15T12:43:02.018Z,13.54
2023-02-15T12:45:32.134Z,13.57
2023-02-15T12:48:15.510Z,13.68
2023-02-15T12:50:45.258Z,13.72
2023-02-15T12:53:24.205Z,13.77
2023-02-15T12:55:57.586Z,13.93
2023-02-15T12:58:26.450Z,13.92
2023-02-15T13:01:10.751Z,13.84
2023-02-15T13:03:52.772Z,13.80
2023-02-15T13:06:20.264Z,14.00
2023-02-15T13:08:50.932Z,14.08
2023-02-15T13:11:42.760Z,14.13
2023-02-15T13:14:27.194Z,14.18
2023-02-15T13:17:00.391Z,14.19
2023-02-15T13:19:37.611Z,14.27
2023-02-15T13:22:11.848Z,14.36
2023-02-15T13:24:55.075Z,14.41
2023-02-15T13:27:28.485Z,14.47
2023-02-15T13:29:59.988Z,14.52
2023-02-15T13:32:42.233Z,14.63
2023-02-15T13:35:18.106Z,14.76
2023-02-15T13:38:11.591Z,14.86
2023-02-15T13:40:51.276Z,14.79
2023-02-15T13:43:24.288Z,14.77
2023-02-15T13:46:06.850Z,14.82
2023-02-15T13:48:50.321Z,14.82
2023-02-15T13:51:33.610Z,14.94
2023-02-15T13:54:33.125Z,15.01
2023-02-15T13:57:22.328Z,14.89
2023-02-15T14:00:00.161Z,14.96
2023-02-15T14:02:49.095Z,14.86
2023-02-15T14:05:30.718Z,14.95
2023-02-15T14:08:13.879Z,15.09
2023-02-15T14:10:59.510Z,15.36
2023-02-15T14:13:58.677Z,15.21
2023-02-15T14:16:42.287Z,15.13
2023-02-15T14:19:33.908Z,15.38
2023-02-15T14:22:21.261Z,15.50
2023-02-15T14:25:05.619Z,15.37
2023-02-15T14:27:45.066Z,15.33
2023-02-15T14:30:24.016Z,15.45
2023-02-15T14:33:01.477Z,15.49
2023-02-15T14:35:31.357Z,15.46
2023-02-15T14:38:10.646Z,15.71
2023-02-15T14:41:00.600Z,16.09
2023-02-15T14:43:52.912Z,15.68
2023-02-15T14:46:38.338Z,15.76
2023-02-15T14:49:12.637Z,15.82
2023-02-15T14:51:47.029Z,15.69
2023-02-15T14:54:17.393Z,15.81
2023-02-15T14:57:03.961Z,15.62
2023-02-15T14:59:47.013Z,15.71
2023-02-15T15:02:24.280Z,15.79
2023-02-15T15:04:57.651Z,15.80
2023-02-15T15:07:37.780Z,15.77
2023-02-15T15:10:27.205Z,15.68
2023-02-15T15:12:58.823Z,15.77
2023-02-15T15:15:29.775Z,15.65
2023-02-15T15:18:06.638Z,15.53
2023-02-15T15:20:51.584Z,15.51
2023-02-15T15:23:24.990Z,15.56
2023-02-15T15:25:56.098Z,15.54
2023-02-15T15:28:35.630Z,15.43
2023-02-15T15:31:40.726Z,15.39
2023-02-15T15:34:47.964Z,15.31
2023-02-15T15:37:27.384Z,15.19
2023-02-15T15:40:08.617Z,15.12
2023-02-15T15:42:53.679Z,15.02
2023-02-15T15:45:59.313Z,15.06
2023-02-15T15:48:39.893Z,14.98
2023-02-15T15:51:34.533Z,15.00
2023-02-15T15:54:03.785Z,14.87
2023-02-15T15:56:36.794Z,14.53
2023-02-15T15:59:08.317Z,14.54
2023-02-15T16:01:44.235Z,14.54
2023-02-15T16:04:14.455Z,14.48
2023-02-15T16:06:43.051Z,14.60
2023-02-15T16:09:25.301Z,14.54
2023-02-15T16:12:02.869Z,14.49
2023-02-15T16:14:44.078Z,14.38
2023-02-15T16:17:37.435Z,14.34
2023-02-15T16:20:15.910Z,14.20
2023-02-15T16:22:43.695Z,14.13
2023-02-15T16:25:37.449Z,14.05
2023-02-15T16:28:08.714Z,14.03
2023-02-15T16:30:37.925Z,13.82
2023-02-15T16:33:12.849Z,13.88
2023-02-15T16:36:00.631Z,13.74
2023-02-15T16:38:44.060Z,13.63
2023-02-15T16:41:15.101Z,13.44
2023-02-15T16:43:46.955Z,13.38
2023-02-15T16:46:23.774Z,13.28
2023-02-15T16:48:55.166Z,13.16
2023-02-15T16:51:30.053Z,13.10
2023-02-15T16:54:02.120Z,13.04
2023-02-15T16:56:33.133Z,12.99
2023-02-15T16:59:04.831Z,12.78
2023-02-15T17:01:34.226Z,12.71
2023-02-15T17:04:24.368Z,12.75
2023-02-15T17:07:04.502Z,12.63
2023-02-15T17:09:34.323Z,12.39
2023-02-15T17:12:03.762Z,12.35
2023-02-15T17:14:36.850Z,12.30
2023-02-15T17:17:14.515Z,12.23
2023-02-15T17:19:54.806Z,12.13
2023-02-15T17:22:25.625Z,11.94
2023-02-15T17:25:00.560Z,11.85
2023-02-15T17:27:32.367Z,11.75
2023-02-15T17:30:12.840Z,11.66
2023-02-15T17:32:55.198Z,11.52
2023-02-15T17:35:30.690Z,11.43
2023-02-15T17:38:28.529Z,11.28
2023-02-15T17:40:55.824Z,11.24
2023-02-15T17:43:23.553Z,11.15
2023-02-15T17:45:52.852Z,11.06
2023-02-15T17:48:33.392Z,10.78
2023-02-15T17:51:04.516Z,10.74
2023-02-15T17:53:34.022Z,10.61
2023-02-15T17:56:10.657Z,10.45
2023-02-15T17:58:38.702Z,10.31
2023-02-15T18:01:32.968Z,10.24
2023-02-15T18:04:18.617Z,10.09
2023-02-15T18:07:04.533Z,9.96
2023-02-15T18:09:50.938Z,9.82
2023-02-15T18:12:25.093Z,9.74
2023-02-15T18:14:56.478Z,9.50
2023-02-15T18:17:34.496Z,9.49
2023-02-15T18:20:07.339Z,9.28
2023-02-15T18:22:34.666Z,9.30
2023-02-15T18:25:02.232Z,9.20
2023-02-15T18:27:29.972Z,9.13
2023-02-15T18:29:58.291Z,9.03
2023-02-15T18:32:37.397Z,8.99
2023-02-15T18:35:05.888Z,8.84
2023-02-15T18:37:34.454Z,8.66
2023-02-15T18:40:05.405Z,8.60
2023-02-15T18:42:35.772Z,8.27
2023-02-15T18:45:19.077Z,8.23
2023-02-15T18:47:46.653Z,8.30
2023-02-15T18:50:19.111Z,8.25
2023-02-15T18:52:49.080Z,8.16
2023-02-15T18:55:24.509Z,7.95
2023-02-15T18:57:54.325Z,7.91
2023-02-15T19:00:28.880Z,7.91
2023-02-15T19:02:57.287Z,7.47
2023-02-15T19:05:29.362Z,7.64
2023-02-15T19:07:59.749Z,7.56
2023-02-15T19:10:31.679Z,7.47
2023-02-15T19:13:00.267Z,7.43
2023-02-15T19:15:33.137Z,7.45
2023-02-15T19:18:00.471Z,7.24
2023-02-15T19:20:32.797Z,7.09
2023-02-15T19:23:02.019Z,7.13
2023-02-15T19:25:32.596Z,7.06
2023-02-15T19:28:01.679Z,7.20
2023-02-15T19:30:31.786Z,7.06
2023-02-15T19:33:00.652Z,6.82
2023-02-15T19:35:32.216Z,6.81
2023-02-15T19:38:03.479Z,6.54
2023-02-15T19:40:33.585Z,6.65
2023-02-15T19:43:01.084Z,6.57
2023-02-15T19:45:31.343Z,6.57
2023-02-15T19:48:01.646Z,6.50
2023-02-15T19:50:31.553Z,6.47
2023-02-15T19:52:59.311Z,6.40
2023-02-15T19:55:32.198Z,6.30
2023-02-15T19:58:01.290Z,6.25
2023-02-15T20:00:33.956Z,6.19
2023-02-15T20:03:05.039Z,6.14
2023-02-15T20:05:35.452Z,6.08
2023-02-15T20:08:04.540Z,5.99
2023-02-15T20:10:32.499Z,5.92
2023-02-15T20:12:59.851Z,5.90
2023-02-15T20:15:30.544Z,5.82
2023-02-15T20:17:59.964Z,5.78
2023-02-15T20:20:31.761Z,5.68
2023-02-15T20:22:59.148Z,5.58
2023-02-15T20:25:33.698Z,5.53
2023-02-15T20:28:02.060Z,5.43
2023-02-15T20:30:33.076Z,5.42
2023-02-15T20:33:00.431Z,5.40
2023-02-15T20:35:29.076Z,5.38
2023-02-15T20:38:00.656Z,5.31
2023-02-15T20:40:33.208Z,5.27
2023-02-15T20:43:01.578Z,5.20
2023-02-15T20:45:32.157Z,5.06
2023-02-15T20:48:02.048Z,4.98
2023-02-15T20:50:32.425Z,4.99
2023-02-15T20:53:03.105Z,4.87
2023-02-15T20:55:33.968Z,5.01
2023-02-15T20:58:01.489Z,4.86
2023-02-15T21:00:32.128Z,4.88
2023-02-15T21:03:01.305Z,4.84
2023-02-15T21:05:33.205Z,4.66
2023-02-15T21:08:02.567Z,4.69
2023-02-15T21:10:33.533Z,4.63
2023-02-15T21:13:02.585Z,4.64
2023-02-15T21:15:35.815Z,4.62
2023-02-15T21:18:12.704Z,4.53
2023-02-15T21:20:45.943Z,4.47
2023-02-15T21:23:16.089Z,4.42
2023-02-15T21:25:44.683Z,4.31
2023-02-15T21:28:21.543Z,4.30
2023-02-15T21:30:50.135Z,4.26
2023-02-15T21:33:18.311Z,4.08
2023-02-15T21:35:49.636Z,4.12
2023-02-15T21:38:21.701Z,4.06
2023-02-15T21:40:49.610Z,3.99
2023-02-15T21:43:44.339Z,3.93
2023-02-15T21:46:37.313Z,3.86
2023-02-15T21:49:09.321Z,3.82
2023-02-15T21:51:55.514Z,3.77
2023-02-15T21:54:23.045Z,3.78
2023-02-15T21:56:51.603Z,3.74
2023-02-15T21:59:19.049Z,3.71
2023-02-15T22:01:51.702Z,3.65
2023-02-15T22:04:26.962Z,3.67
2023-02-15T22:06:55.687Z,3.66
2023-02-15T22:09:26.261Z,3.70
2023-02-15T22:12:02.132Z,3.61
2023-02-15T22:14:41.556Z,3.51
2023-02-15T22:17:16.585Z,3.49
2023-02-15T22:19:45.774Z,3.40
2023-02-15T22:22:13.226Z,3.36
2023-02-15T22:24:41.213Z,3.36
2023-02-15T22:27:17.916Z,3.25
2023-02-15T22:29:45.445Z,3.21
2023-02-15T22:32:22.160Z,3.23
2023-02-15T22:34:50.444Z,3.25
2023-02-15T22:37:17.887Z,3.16
2023-02-15T22:39:45.417Z,3.15
2023-02-15T22:42:25.761Z,2.99
2023-02-15T22:44:56.456Z,3.09
2023-02-15T22:47:27.206Z,3.04
2023-02-15T22:49:55.416Z,3.09
2023-02-15T22:52:22.765Z,3.05
2023-02-15T22:54:50.320Z,2.98
2023-02-15T22:57:29.658Z,2.80
2023-02-15T22:59:58.486Z,2.85
2023-02-15T23:02:26.013Z,2.81
2023-02-15T23:04:54.369Z,2.85
2023-02-15T23:07:23.317Z,2.79
2023-02-15T23:09:51.397Z,2.77
2023-02-15T23:12:29.176Z,2.72
2023-02-15T23:14:57.774Z,2.72
2023-02-15T23:17:25.168Z,2.68
2023-02-15T23:19:52.484Z,2.69
2023-02-15T23:22:20.831Z,2.56
2023-02-15T23:24:53.754Z,2.54
2023-02-15T23:27:39.624Z,2.50
2023-02-15T23:30:13.828Z,2.48
2023-02-15T23:32:41.657Z,2.43
2023-02-15T23:35:17.413Z,2.39
2023-02-15T23:37:49.156Z,2.33
2023-02-15T23:40:37.889Z,2.31
2023-02-15T23:43:06.628Z,2.34
2023-02-15T23:45:38.649Z,2.25
2023-02-15T23:48:36.656Z,2.24
2023-02-15T23:51:06.301Z,2.08
2023-02-15T23:53:34.027Z,2.21
2023-02-15T23:56:02.277Z,2.17
2023-02-15T23:58:36.744Z,2.17
